Bethel, Washington
Current Conditions -  °F | °C
As of 8:26 AM on Friday 21 Nov 2014 (Local Time) from KTCM Reporting Station
Light Rain Light Rain  
Wind Chill: 50°   Ceiling: 6000
Heat Index: 50°   Visibility: 9mi
Dew Point: 48°   Wind: 10mph
Humidity: 94%   Direction: 150°SSE
Pressure: 29.73"   Gusts: NA
Location:  47.0761°N, 122.396°W
Report Text: KTCM 211626Z AUTO 15009KT 9SM -RA FEW047 BKN060 10/09 A2973 RMK AO2 RAB1613E1625 $
Loading
Personal Weather Stations






























Interactive Weather Map New forecast layout! Learn more

10-Day Weather Forecast

Advertisements
Track Severe Weather on mobile